Time;durP1;ratioP1;P1;durP2;ratioP2;P2;SDS_P1;SDS_P2;PMS_P1;PMS_P2;Temp;Humidity;BMP_temperature;BMP_pressure;BME280_temperature;BME280_humidity;BME280_pressure;Samples;Min_cycle;Max_cycle;Signal;HPM_P1;HPM_P2
2021/06/08 00:00:28;;;;;;;1.77;1.00;;;;;;;14.61;71.71;97836.05;1676790;86;21471;-72
2021/06/08 00:02:57;;;;;;;1.32;1.12;;;;;;;14.58;71.19;97831.66;1676573;86;21039;-72
2021/06/08 00:05:24;;;;;;;1.55;1.27;;;;;;;14.57;70.45;97840.48;1676723;86;21086;-72
2021/06/08 00:07:51;;;;;;;2.83;1.20;;;;;;;14.53;70.51;97838.70;1676488;86;21221;-66
2021/06/08 00:10:19;;;;;;;4.50;1.40;;;;;;;14.51;70.50;97838.56;1674776;86;21047;-70
2021/06/08 00:12:47;;;;;;;2.12;1.10;;;;;;;14.48;70.35;97837.09;1675506;85;21583;-72
2021/06/08 00:15:14;;;;;;;4.78;1.17;;;;;;;14.45;69.77;97834.00;1674697;86;21539;-65
2021/06/08 00:17:41;;;;;;;1.77;1.35;;;;;;;14.42;70.48;97831.25;1674931;86;21091;-65
2021/06/08 00:20:10;;;;;;;2.12;1.27;;;;;;;14.40;71.04;97835.81;1674958;86;21560;-65
2021/06/08 00:22:37;;;;;;;1.57;1.02;;;;;;;14.36;70.79;97831.12;1674719;86;21062;-70
2021/06/08 00:25:05;;;;;;;2.45;1.40;;;;;;;14.31;69.55;97826.36;1674820;86;21050;-70
2021/06/08 00:27:32;;;;;;;2.17;1.42;;;;;;;14.28;69.21;97821.97;1674835;86;21094;-70
2021/06/08 00:29:59;;;;;;;1.98;1.20;;;;;;;14.24;71.04;97822.28;1674857;86;21059;-70
2021/06/08 00:32:26;;;;;;;1.35;0.93;;;;;;;14.23;70.51;97826.39;1674864;86;21530;-69
2021/06/08 00:34:53;;;;;;;1.70;1.12;;;;;;;14.20;70.87;97824.13;1674721;86;21222;-70
2021/06/08 00:37:20;;;;;;;1.50;1.27;;;;;;;14.16;71.04;97821.53;1674639;86;21523;-65
2021/06/08 00:39:47;;;;;;;1.87;1.40;;;;;;;14.11;72.43;97819.41;1674468;86;21516;-70
2021/06/08 00:42:14;;;;;;;4.37;1.60;;;;;;;14.06;72.10;97819.09;1674616;86;21031;-70
2021/06/08 00:44:41;;;;;;;1.77;1.02;;;;;;;14.03;73.76;97819.92;1674778;86;21122;-70
2021/06/08 00:47:08;;;;;;;3.10;1.22;;;;;;;13.99;72.32;97814.23;1674798;85;21094;-70
2021/06/08 00:49:35;;;;;;;3.22;1.12;;;;;;;13.98;71.79;97819.11;1674433;86;21043;-70
2021/06/08 00:52:03;;;;;;;2.80;1.10;;;;;;;13.94;71.76;97810.47;1674700;86;21004;-69
2021/06/08 00:54:29;;;;;;;1.85;1.30;;;;;;;13.88;71.89;97806.75;1674734;86;21051;-64
2021/06/08 00:56:58;;;;;;;4.30;1.37;;;;;;;13.84;73.20;97813.77;1674995;85;21494;-64
2021/06/08 00:59:25;;;;;;;1.15;0.98;;;;;;;13.81;72.46;97805.80;1674599;85;21079;-64
2021/06/08 01:01:52;;;;;;;4.15;1.32;;;;;;;13.77;72.48;97809.20;1674845;85;21058;-65
2021/06/08 01:04:18;;;;;;;2.72;1.55;;;;;;;13.74;72.21;97804.81;1674465;86;21196;-65
2021/06/08 01:06:48;;;;;;;0.80;0.80;;;;;;;13.71;71.21;97812.97;1674672;86;21543;-64
2021/06/08 01:09:14;;;;;;;1.98;1.40;;;;;;;13.67;71.74;97811.19;1674558;85;21166;-64
2021/06/08 01:11:41;;;;;;;1.95;1.30;;;;;;;13.63;71.19;97807.28;1674505;86;21050;-64
2021/06/08 01:14:08;;;;;;;1.85;1.10;;;;;;;13.59;70.96;97811.20;1674609;86;21083;-69
2021/06/08 01:16:36;;;;;;;1.90;1.00;;;;;;;13.55;70.42;97804.68;1674428;86;21063;-69
2021/06/08 01:19:03;;;;;;;4.78;1.35;;;;;;;13.51;70.65;97805.17;1674752;86;21039;-69
2021/06/08 01:21:31;;;;;;;2.35;1.27;;;;;;;13.47;71.38;97810.39;1674473;86;21125;-69
2021/06/08 01:24:01;;;;;;;1.85;1.20;;;;;;;13.41;74.61;97814.97;1674848;86;21046;-63
2021/06/08 01:26:30;;;;;;;3.12;1.17;;;;;;;13.38;73.11;97821.34;1674711;86;21535;-62
2021/06/08 01:29:03;;;;;;;2.35;1.32;;;;;;;13.34;72.88;97819.22;1674804;86;21093;-62
2021/06/08 01:31:36;;;;;;;3.02;1.57;;;;;;;13.31;75.66;97818.55;1674558;86;21129;-65
2021/06/08 01:34:04;;;;;;;1.85;1.00;;;;;;;13.25;75.33;97822.30;1674839;86;21119;-70
2021/06/08 01:36:36;;;;;;;3.75;1.25;;;;;;;13.23;73.91;97825.55;1674885;86;21133;-65
2021/06/08 01:39:05;;;;;;;1.30;1.00;;;;;;;13.22;73.62;97814.81;1654091;86;21070;-65
2021/06/08 01:41:33;;;;;;;1.40;0.93;;;;;;;13.20;75.52;97829.79;1674912;86;21209;-67
2021/06/08 01:44:00;;;;;;;1.57;1.00;;;;;;;13.21;74.87;97818.39;1674794;85;21075;-65
2021/06/08 01:46:27;;;;;;;1.40;0.90;;;;;;;13.20;76.06;97817.57;1674566;86;21484;-70
2021/06/08 01:48:54;;;;;;;1.62;1.20;;;;;;;13.18;75.00;97820.84;1674953;86;21483;-69
2021/06/08 01:51:38;;;;;;;3.27;1.27;;;;;;;13.19;76.20;97821.15;1674877;86;21042;-70
2021/06/08 01:54:36;;;;;;;1.55;0.93;;;;;;;13.19;75.83;97818.54;1674992;86;21507;-70
2021/06/08 01:57:23;;;;;;;3.72;1.25;;;;;;;13.20;74.96;97825.88;1674611;86;21047;-70
2021/06/08 02:00:04;;;;;;;2.10;1.17;;;;;;;13.19;76.15;97819.84;1659345;86;21118;-70
2021/06/08 02:02:48;;;;;;;1.35;1.12;;;;;;;13.19;75.18;97822.97;1674727;86;21157;-65
2021/06/08 02:05:24;;;;;;;1.72;1.10;;;;;;;13.18;74.00;97818.72;1674824;85;21071;-64
2021/06/08 02:08:05;;;;;;;3.33;1.20;;;;;;;13.17;73.61;97827.52;1658481;86;21122;-69
2021/06/08 02:10:53;;;;;;;2.67;1.22;;;;;;;13.16;73.14;97825.39;1674634;84;21078;-70
2021/06/08 02:13:28;;;;;;;6.45;1.25;;;;;;;13.15;72.21;97825.57;1675012;86;21197;-70
2021/06/08 02:16:15;;;;;;;2.20;1.20;;;;;;;13.12;71.56;97829.78;1674937;85;21551;-69
2021/06/08 02:18:45;;;;;;;3.62;1.15;;;;;;;13.08;71.45;97821.92;1674555;85;21529;-65
2021/06/08 02:21:14;;;;;;;1.52;0.88;;;;;;;13.05;71.74;97823.55;1674839;86;21046;-65
2021/06/08 02:23:44;;;;;;;1.95;1.05;;;;;;;13.02;70.89;97821.28;1674773;86;21098;-64
2021/06/08 02:26:11;;;;;;;1.77;1.00;;;;;;;12.99;71.69;97821.61;1675021;86;21031;-65
2021/06/08 02:28:40;;;;;;;1.75;1.15;;;;;;;12.96;71.83;97827.94;1674808;85;21237;-70
2021/06/08 02:31:08;;;;;;;2.60;1.45;;;;;;;12.93;71.38;97832.17;1674968;86;21075;-65
2021/06/08 02:33:38;;;;;;;1.98;1.22;;;;;;;12.89;70.38;97827.44;1674391;86;21066;-70
2021/06/08 02:36:06;;;;;;;2.10;1.15;;;;;;;12.85;69.85;97831.67;1674638;85;20995;-65
2021/06/08 02:38:35;;;;;;;2.08;0.95;;;;;;;12.81;71.97;97825.15;1674558;86;21051;-70
2021/06/08 02:41:04;;;;;;;1.42;0.98;;;;;;;12.79;72.49;97831.02;1674881;85;21055;-64
2021/06/08 02:43:34;;;;;;;1.70;1.40;;;;;;;12.78;72.73;97828.08;1674887;86;21031;-64
2021/06/08 02:46:02;;;;;;;2.77;1.17;;;;;;;12.78;72.49;97828.56;1674778;86;21151;-70
2021/06/08 02:48:51;;;;;;;1.20;1.00;;;;;;;12.77;72.92;97822.53;1674841;86;21146;-65
2021/06/08 02:51:21;;;;;;;2.15;1.35;;;;;;;12.77;73.29;97826.44;1722754;83;21072;-69
2021/06/08 02:53:51;;;;;;;3.90;1.20;;;;;;;12.77;73.08;97827.74;1723057;82;21081;-68
2021/06/08 02:56:18;;;;;;;1.45;1.07;;;;;;;12.78;73.79;97823.35;1723012;82;21136;-68
2021/06/08 02:58:46;;;;;;;2.15;1.17;;;;;;;12.80;74.71;97826.11;1722562;83;21141;-65
2021/06/08 03:01:17;;;;;;;2.75;1.00;;;;;;;12.83;74.15;97836.25;1723091;83;21493;-68
2021/06/08 03:03:48;;;;;;;4.15;1.17;;;;;;;12.88;73.38;97835.73;1722735;83;21041;-70
2021/06/08 03:06:22;;;;;;;1.27;1.07;;;;;;;12.94;73.85;97836.91;1722163;83;21081;-69
2021/06/08 03:09:05;;;;;;;1.50;0.85;;;;;;;12.97;71.63;97841.79;1722883;83;21120;-69
2021/06/08 03:11:42;;;;;;;1.60;1.15;;;;;;;13.00;71.27;97838.38;1722872;83;21009;-67
2021/06/08 03:14:13;;;;;;;1.92;1.10;;;;;;;13.05;71.64;97837.41;1722608;83;21026;-68
2021/06/08 03:16:54;;;;;;;1.60;1.40;;;;;;;13.10;71.60;97841.69;1702445;83;20993;-63
2021/06/08 03:19:25;;;;;;;2.52;1.05;;;;;;;13.13;71.25;97837.45;1721741;83;21579;-69
2021/06/08 03:21:56;;;;;;;2.02;1.00;;;;;;;13.17;72.84;97839.25;1722855;83;21042;-64
2021/06/08 03:24:27;;;;;;;1.60;1.17;;;;;;;13.18;71.94;97839.09;1722525;83;21042;-69
2021/06/08 03:26:56;;;;;;;1.22;0.90;;;;;;;13.23;73.37;97843.80;1723099;83;20990;-66
2021/06/08 03:29:24;;;;;;;2.37;1.20;;;;;;;13.26;73.07;97840.89;1723249;83;21110;-71
2021/06/08 03:31:51;;;;;;;1.40;1.00;;;;;;;13.29;72.67;97843.17;1723357;83;21038;-70
2021/06/08 03:34:19;;;;;;;2.12;1.12;;;;;;;13.29;72.75;97843.98;1722612;82;21054;-71
2021/06/08 03:36:53;;;;;;;1.65;1.20;;;;;;;13.24;74.93;97848.05;1722858;83;21077;-70
2021/06/08 03:39:22;;;;;;;1.50;1.05;;;;;;;13.24;73.92;97860.60;1722586;83;21569;-64
2021/06/08 03:41:52;;;;;;;1.10;0.88;;;;;;;13.25;74.55;97854.42;1722868;83;21068;-68
2021/06/08 03:44:20;;;;;;;8.48;1.40;;;;;;;13.29;72.71;97849.20;1722691;82;21044;-71
2021/06/08 03:46:50;;;;;;;1.98;1.52;;;;;;;13.35;73.03;97851.63;1722687;82;21096;-69
2021/06/08 03:49:19;;;;;;;1.60;0.93;;;;;;;13.41;72.36;97854.09;1722600;83;21080;-64
2021/06/08 03:51:51;;;;;;;2.12;1.27;;;;;;;13.44;71.84;97857.19;1722674;83;21708;-69
2021/06/08 03:54:18;;;;;;;2.85;1.57;;;;;;;13.47;71.34;97860.77;1722471;82;21077;-64
2021/06/08 03:56:49;;;;;;;33.70;15.83;;;;;;;13.48;71.17;97866.80;1741781;81;20990;-64
2021/06/08 03:59:21;;;;;;;36.93;16.82;;;;;;;13.48;71.84;97863.72;1750387;82;21209;-67
2021/06/08 04:01:49;;;;;;;7.85;4.47;;;;;;;13.48;72.06;97863.72;1729747;82;21363;-68
2021/06/08 04:04:18;;;;;;;5.97;2.67;;;;;;;13.42;74.07;97860.47;1679512;84;21028;-67
2021/06/08 04:06:49;;;;;;;20.90;8.90;;;;;;;13.42;73.93;97860.95;1677683;85;21009;-67
2021/06/08 04:09:17;;;;;;;2.92;1.92;;;;;;;13.42;72.95;97859.16;1677557;85;21500;-68
2021/06/08 04:11:48;;;;;;;6.65;1.60;;;;;;;13.47;73.25;97862.56;1677916;85;21437;-67
2021/06/08 04:14:15;;;;;;;1.55;1.20;;;;;;;13.51;72.49;97861.25;1677675;85;21091;-68
2021/06/08 04:16:43;;;;;;;2.22;1.40;;;;;;;13.55;73.41;97869.91;1677645;85;21024;-64
2021/06/08 04:19:12;;;;;;;3.52;1.65;;;;;;;13.57;73.07;97864.05;1677646;85;21024;-64
2021/06/08 04:21:41;;;;;;;2.70;1.52;;;;;;;13.61;72.93;97865.35;1678596;84;21128;-67
2021/06/08 04:24:10;;;;;;;3.02;1.42;;;;;;;13.64;72.33;97865.50;1692212;84;21027;-71
2021/06/08 04:26:38;;;;;;;5.05;1.67;;;;;;;13.65;72.38;97865.35;1689302;84;21130;-64
2021/06/08 04:29:05;;;;;;;2.22;1.62;;;;;;;13.69;71.69;97864.53;1690423;84;21025;-65
2021/06/08 04:31:33;;;;;;;3.75;1.60;;;;;;;13.72;71.76;97866.80;1692276;84;21006;-64
2021/06/08 04:34:00;;;;;;;1.80;1.17;;;;;;;13.76;71.63;97867.63;1681836;84;21015;-68
2021/06/08 04:36:27;;;;;;;1.57;1.10;;;;;;;13.80;71.56;97873.33;1701894;84;21574;-65
2021/06/08 04:38:55;;;;;;;2.85;1.07;;;;;;;13.84;71.22;97872.02;1701428;84;21094;-65
2021/06/08 04:41:22;;;;;;;2.67;1.57;;;;;;;13.89;70.58;97870.22;1701831;84;21112;-65
2021/06/08 04:43:49;;;;;;;2.50;1.30;;;;;;;13.92;70.48;97868.58;1699596;84;21042;-63
2021/06/08 04:46:17;;;;;;;1.75;1.30;;;;;;;13.94;69.94;97862.20;1682554;85;21079;-66
2021/06/08 04:48:45;;;;;;;5.00;1.47;;;;;;;14.00;70.13;97865.95;1682063;85;21114;-66
2021/06/08 04:51:12;;;;;;;2.02;1.50;;;;;;;14.06;69.95;97867.40;1666104;84;21464;-67
2021/06/08 04:53:41;;;;;;;4.25;1.60;;;;;;;14.16;69.56;97866.71;1669371;86;21042;-67
2021/06/08 04:56:08;;;;;;;2.10;1.25;;;;;;;14.26;69.53;97865.23;1670016;86;21099;-68
2021/06/08 04:58:39;;;;;;;2.83;1.30;;;;;;;14.38;69.58;97865.71;1669821;86;21065;-67
2021/06/08 05:01:27;;;;;;;1.87;1.47;;;;;;;14.46;67.99;97870.91;1641355;86;21007;-63
2021/06/08 05:03:59;;;;;;;2.10;1.30;;;;;;;14.53;67.25;97871.37;1670188;86;21033;-62
2021/06/08 05:06:47;;;;;;;4.15;1.30;;;;;;;14.59;67.35;97869.89;1668763;86;21073;-63
2021/06/08 05:09:18;;;;;;;2.05;1.45;;;;;;;14.64;66.99;97867.06;1668739;85;21582;-67
2021/06/08 05:11:56;;;;;;;1.42;1.17;;;;;;;14.72;66.96;97873.56;1669662;86;21041;-68
2021/06/08 05:14:24;;;;;;;3.83;1.45;;;;;;;14.83;67.21;97875.47;1670229;86;21158;-68
2021/06/08 05:16:53;;;;;;;2.20;1.30;;;;;;;14.97;67.41;97866.42;1670552;86;21065;-71
2021/06/08 05:19:21;;;;;;;2.47;1.50;;;;;;;15.11;67.46;97863.05;1670480;86;21214;-69
2021/06/08 05:21:48;;;;;;;1.92;1.50;;;;;;;15.28;68.18;97864.25;1670520;85;21142;-66
2021/06/08 05:24:17;;;;;;;1.80;1.40;;;;;;;15.44;68.55;97862.34;1670287;84;21491;-63
2021/06/08 05:26:48;;;;;;;2.95;1.92;;;;;;;15.59;68.32;97859.80;1670288;86;21011;-63
2021/06/08 05:29:21;;;;;;;3.17;1.47;;;;;;;15.71;67.78;97866.23;1670313;86;21082;-63
2021/06/08 05:31:50;;;;;;;1.50;1.37;;;;;;;15.86;68.07;97864.95;1670410;86;21114;-67
2021/06/08 05:34:20;;;;;;;3.27;1.45;;;;;;;16.03;67.28;97865.91;1670297;86;21102;-63
2021/06/08 05:36:47;;;;;;;4.25;1.52;;;;;;;16.16;66.76;97862.67;1670114;85;21079;-67
2021/06/08 05:39:14;;;;;;;1.65;1.37;;;;;;;16.30;66.49;97857.92;1670295;86;21080;-66
2021/06/08 05:41:41;;;;;;;8.18;1.67;;;;;;;16.46;66.34;97862.98;1670318;86;21108;-68
2021/06/08 05:44:14;;;;;;;2.70;1.37;;;;;;;16.63;66.53;97857.08;1670291;85;21054;-66
2021/06/08 05:46:41;;;;;;;2.98;1.40;;;;;;;16.81;65.72;97867.20;1670352;86;21030;-67
2021/06/08 05:49:09;;;;;;;6.12;1.65;;;;;;;16.91;66.25;97862.45;1668768;85;21637;-68
2021/06/08 05:51:38;;;;;;;4.25;1.75;;;;;;;17.06;65.34;97860.11;1661782;86;21550;-68
2021/06/08 05:54:08;;;;;;;7.33;1.45;;;;;;;17.24;65.38;97855.73;1661940;86;21219;-67
2021/06/08 05:56:38;;;;;;;2.12;1.47;;;;;;;17.39;64.59;97855.70;1662089;86;21014;-63
2021/06/08 05:59:06;;;;;;;2.87;1.35;;;;;;;17.50;64.04;97854.69;1661983;86;21138;-66
2021/06/08 06:01:35;;;;;;;4.50;1.70;;;;;;;17.62;64.05;97847.64;1661710;86;21129;-68
2021/06/08 06:04:03;;;;;;;1.80;1.40;;;;;;;17.77;63.56;97854.43;1661069;86;21181;-67
2021/06/08 06:06:30;;;;;;;3.98;1.35;;;;;;;17.94;63.30;97850.99;1661897;86;21095;-68
2021/06/08 06:08:57;;;;;;;3.58;1.52;;;;;;;18.11;62.83;97845.77;1661732;86;21137;-67
2021/06/08 06:11:26;;;;;;;2.83;1.85;;;;;;;18.24;62.13;97852.92;1661955;86;21117;-67
2021/06/08 06:14:04;;;;;;;3.35;1.25;;;;;;;18.39;61.71;97847.85;1661836;86;21141;-67
2021/06/08 06:16:36;;;;;;;1.50;1.27;;;;;;;18.57;60.96;97848.66;1662106;86;21667;-66
2021/06/08 06:19:07;;;;;;;1.90;1.65;;;;;;;18.57;60.63;97841.27;1661726;85;21138;-66
2021/06/08 06:21:35;;;;;;;3.20;1.60;;;;;;;18.68;61.03;97837.58;1641010;86;21053;-69
2021/06/08 06:24:04;;;;;;;1.45;1.20;;;;;;;18.87;60.31;97836.05;1661941;86;21201;-66
2021/06/08 06:26:33;;;;;;;5.25;1.42;;;;;;;18.99;60.27;97838.38;1661937;86;21131;-63
2021/06/08 06:29:00;;;;;;;1.30;1.00;;;;;;;19.17;59.80;97839.15;1661822;86;21145;-68
2021/06/08 06:31:27;;;;;;;2.52;1.47;;;;;;;19.31;59.38;97842.09;1662209;86;21118;-67
2021/06/08 06:33:56;;;;;;;2.42;1.30;;;;;;;19.48;59.27;97839.42;1661815;86;21139;-68
2021/06/08 06:36:29;;;;;;;1.47;1.12;;;;;;;19.65;58.02;97834.58;1661985;86;21566;-66
2021/06/08 06:39:06;;;;;;;1.90;1.05;;;;;;;19.84;58.29;97830.58;1661827;86;21133;-66
2021/06/08 06:41:40;;;;;;;1.98;0.78;;;;;;;19.95;58.10;97809.41;1661921;86;21122;-62
2021/06/08 06:44:08;;;;;;;1.22;0.88;;;;;;;20.23;57.24;97824.42;1661757;86;21053;-66
2021/06/08 06:46:35;;;;;;;1.72;0.78;;;;;;;20.42;55.98;97819.36;1661836;86;21525;-63
2021/06/08 06:49:03;;;;;;;1.30;0.90;;;;;;;20.57;56.12;97823.35;1661801;86;21121;-67
2021/06/08 06:51:30;;;;;;;1.30;1.00;;;;;;;20.73;55.26;97824.20;1649108;85;21051;-66
2021/06/08 06:53:57;;;;;;;0.75;0.72;;;;;;;20.89;55.07;97816.31;1631881;88;21114;-63
2021/06/08 06:56:24;;;;;;;1.30;0.98;;;;;;;21.05;53.99;97818.96;1631515;88;21582;-67
2021/06/08 06:58:51;;;;;;;1.20;0.90;;;;;;;21.20;53.37;97817.67;1631685;88;21011;-67
2021/06/08 07:01:24;;;;;;;1.25;0.90;;;;;;;21.35;52.73;97821.33;1631863;87;21582;-67
2021/06/08 07:03:54;;;;;;;1.98;1.20;;;;;;;21.48;50.25;97827.00;1631667;86;21070;-63
2021/06/08 07:06:23;;;;;;;1.32;1.02;;;;;;;21.54;49.20;97823.52;1631808;88;21083;-63
2021/06/08 07:08:55;;;;;;;1.50;1.07;;;;;;;21.62;49.94;97817.45;1631760;88;21062;-63
2021/06/08 07:11:24;;;;;;;1.95;1.12;;;;;;;21.71;48.97;97825.93;1631771;87;21062;-63
2021/06/08 07:13:51;;;;;;;3.65;1.30;;;;;;;21.78;48.86;97820.06;1631584;88;21093;-65
2021/06/08 07:16:25;;;;;;;2.05;1.17;;;;;;;21.74;48.61;97815.73;1631614;87;21047;-64
2021/06/08 07:18:52;;;;;;;2.00;0.85;;;;;;;21.99;50.22;97821.00;1631523;88;21647;-63
2021/06/08 07:21:23;;;;;;;0.65;0.60;;;;;;;22.22;50.23;97818.52;1631348;88;21149;-63
2021/06/08 07:23:54;;;;;;;2.00;0.75;;;;;;;22.38;50.89;97814.48;1630971;88;21081;-62
2021/06/08 07:26:22;;;;;;;1.95;0.90;;;;;;;22.46;49.41;97813.37;1631159;88;21214;-64
2021/06/08 07:28:53;;;;;;;1.98;1.32;;;;;;;22.46;47.21;97810.73;1619787;88;21081;-62
2021/06/08 07:31:47;;;;;;;2.20;1.00;;;;;;;22.58;46.73;97811.61;1630802;87;21230;-62
2021/06/08 07:34:38;;;;;;;5.55;1.02;;;;;;;22.74;48.37;97811.54;1630697;88;21020;-63
2021/06/08 07:37:07;;;;;;;1.70;1.42;;;;;;;22.78;46.98;97808.74;1630707;87;21068;-63
2021/06/08 07:39:47;;;;;;;2.75;1.22;;;;;;;22.75;46.04;97806.03;1630721;88;21132;-62
2021/06/08 07:42:25;;;;;;;1.65;1.20;;;;;;;22.95;46.86;97808.42;1630838;87;21503;-62
2021/06/08 07:45:04;;;;;;;2.12;1.20;;;;;;;23.07;44.82;97803.43;1631306;88;21211;-62
2021/06/08 07:47:32;;;;;;;1.77;1.00;;;;;;;23.16;44.75;97801.28;1631026;88;21090;-62
2021/06/08 07:50:03;;;;;;;3.37;1.00;;;;;;;23.36;45.95;97803.63;1631549;88;21162;-63
2021/06/08 07:52:31;;;;;;;1.65;0.90;;;;;;;23.55;45.79;97802.53;1663757;85;21570;-63
2021/06/08 07:54:58;;;;;;;4.05;2.58;;;;;;;23.71;43.75;97798.40;1660304;85;21007;-63
2021/06/08 07:57:26;;;;;;;1.70;0.98;;;;;;;23.82;44.45;97805.55;1656507;87;21091;-63
2021/06/08 07:59:53;;;;;;;1.62;0.90;;;;;;;23.92;44.67;97803.95;1662053;85;21031;-63
2021/06/08 08:02:22;;;;;;;3.00;1.10;;;;;;;23.71;40.29;97803.70;1658458;85;21082;-63
2021/06/08 08:04:51;;;;;;;2.83;0.90;;;;;;;23.90;41.84;97798.05;1660651;85;21112;-62
2021/06/08 08:07:26;;;;;;;1.77;1.10;;;;;;;23.97;42.11;97797.92;1679583;84;21018;-63
2021/06/08 08:09:54;;;;;;;1.57;0.90;;;;;;;24.06;42.24;97791.24;1684907;85;21249;-63
2021/06/08 08:12:22;;;;;;;1.70;1.20;;;;;;;24.22;42.29;97798.52;1685120;85;21131;-64
2021/06/08 08:14:52;;;;;;;2.40;1.75;;;;;;;24.21;40.86;97796.91;1684891;84;21677;-64
2021/06/08 08:17:23;;;;;;;6.45;3.47;;;;;;;23.93;38.54;97795.48;1685042;85;21046;-65
2021/06/08 08:19:53;;;;;;;2.22;1.55;;;;;;;24.06;37.79;97791.24;1685042;85;21102;-65
2021/06/08 08:22:20;;;;;;;1.47;1.27;;;;;;;24.10;39.36;97793.72;1685131;85;21530;-65
2021/06/08 08:24:48;;;;;;;2.00;1.10;;;;;;;24.37;38.92;97786.89;1684383;84;21598;-64
2021/06/08 08:27:16;;;;;;;2.33;1.37;;;;;;;24.56;38.97;97787.02;1684430;85;21570;-65
2021/06/08 08:29:45;;;;;;;1.30;1.00;;;;;;;24.69;40.16;97788.59;1684929;85;21082;-64
2021/06/08 08:32:15;;;;;;;1.72;1.17;;;;;;;24.84;39.12;97791.56;1685067;85;21557;-65
2021/06/08 08:34:42;;;;;;;2.33;1.17;;;;;;;24.98;39.37;97796.86;1685219;85;21053;-65
2021/06/08 08:37:10;;;;;;;1.40;1.02;;;;;;;25.07;38.73;97788.50;1685256;85;21070;-65
2021/06/08 08:39:37;;;;;;;4.03;1.12;;;;;;;25.17;39.26;97787.38;1685238;84;21030;-64
2021/06/08 08:42:05;;;;;;;2.20;1.10;;;;;;;25.33;38.88;97788.69;1685216;85;21046;-64
2021/06/08 08:44:32;;;;;;;1.20;0.93;;;;;;;25.53;38.82;97789.58;1685107;85;21522;-64
2021/06/08 08:46:59;;;;;;;2.17;1.05;;;;;;;25.69;39.88;97786.11;1685110;85;21137;-68
2021/06/08 08:49:27;;;;;;;1.77;1.10;;;;;;;25.81;39.11;97783.36;1684827;85;21043;-67
2021/06/08 08:51:56;;;;;;;3.83;1.95;;;;;;;25.98;38.92;97786.28;1696996;84;21130;-68
2021/06/08 08:54:23;;;;;;;1.35;1.10;;;;;;;26.03;37.70;97794.06;1706468;84;21035;-67
2021/06/08 08:56:51;;;;;;;1.37;1.02;;;;;;;26.17;36.74;97787.33;1714963;84;21087;-68
2021/06/08 08:59:20;;;;;;;1.30;1.07;;;;;;;26.34;37.87;97796.11;1689232;83;21022;-65
2021/06/08 09:01:50;;;;;;;3.55;1.75;;;;;;;26.41;35.98;97794.06;1689163;85;21129;-65
2021/06/08 09:04:19;;;;;;;2.35;1.70;;;;;;;26.05;33.63;97783.96;1689213;85;21053;-65
2021/06/08 09:06:46;;;;;;;1.37;1.20;;;;;;;26.19;33.66;97783.91;1689417;83;21523;-68
2021/06/08 09:09:13;;;;;;;1.45;1.30;;;;;;;26.50;35.54;97779.23;1689310;85;21107;-67
2021/06/08 09:11:41;;;;;;;4.58;1.70;;;;;;;26.64;35.54;97785.00;1689284;85;21136;-68
2021/06/08 09:14:11;;;;;;;1.60;1.37;;;;;;;26.65;33.49;97782.63;1688964;85;21018;-68
2021/06/08 09:16:40;;;;;;;1.72;1.20;;;;;;;26.96;35.42;97781.92;1689205;84;21140;-69
2021/06/08 09:19:10;;;;;;;1.92;1.25;;;;;;;27.12;35.29;97779.66;1689136;85;21125;-68
2021/06/08 09:21:39;;;;;;;2.52;1.50;;;;;;;27.24;34.59;97773.64;1689346;85;21145;-67
2021/06/08 09:24:21;;;;;;;1.57;1.37;;;;;;;27.29;32.95;97776.88;1689281;85;21057;-68
2021/06/08 09:26:59;;;;;;;1.55;1.40;;;;;;;27.38;32.44;97776.70;1689201;85;21114;-67
2021/06/08 09:29:39;;;;;;;4.28;1.42;;;;;;;27.33;32.50;97773.45;1689456;85;21050;-67
2021/06/08 09:32:29;;;;;;;2.05;1.45;;;;;;;27.48;31.74;97770.13;1689077;85;21090;-65
2021/06/08 09:35:00;;;;;;;2.67;1.45;;;;;;;27.52;33.49;97772.56;1689281;85;21094;-66
2021/06/08 09:37:43;;;;;;;2.17;1.25;;;;;;;27.28;30.67;97767.27;1689097;85;21550;-69
2021/06/08 09:40:25;;;;;;;1.80;1.45;;;;;;;27.61;32.40;97768.37;1689456;85;21157;-65
2021/06/08 09:43:10;;;;;;;1.60;1.47;;;;;;;27.91;32.97;97774.42;1689250;85;21058;-64
2021/06/08 09:45:51;;;;;;;1.75;1.20;;;;;;;28.20;32.15;97765.02;1689413;85;21042;-65
2021/06/08 09:48:19;;;;;;;1.52;1.25;;;;;;;28.44;33.32;97760.58;1689462;84;21182;-65
2021/06/08 09:50:52;;;;;;;3.80;1.27;;;;;;;28.55;32.91;97759.01;1689580;85;21506;-65
2021/06/08 09:53:30;;;;;;;2.33;1.10;;;;;;;28.31;32.60;97759.18;1689256;85;21002;-65
2021/06/08 09:56:07;;;;;;;1.75;1.35;;;;;;;27.91;32.43;97756.27;1689487;85;21165;-68
2021/06/08 09:58:40;;;;;;;3.80;2.30;;;;;;;27.47;33.20;97754.40;1689513;85;21090;-68
2021/06/08 10:01:26;;;;;;;1.87;1.40;;;;;;;27.66;34.30;97746.27;1688834;85;21077;-65
2021/06/08 10:04:04;;;;;;;2.40;1.47;;;;;;;28.07;32.20;97742.75;1689390;85;21529;-64
2021/06/08 10:06:39;;;;;;;2.45;1.62;;;;;;;28.63;33.24;97733.65;1689382;85;21028;-65
2021/06/08 10:09:11;;;;;;;2.77;1.80;;;;;;;29.04;31.56;97742.55;1689674;85;21518;-69
2021/06/08 10:11:42;;;;;;;4.00;1.45;;;;;;;29.35;31.85;97739.38;1689558;85;21478;-69
2021/06/08 10:14:20;;;;;;;1.40;1.30;;;;;;;29.45;31.11;97734.84;1689330;85;21419;-69
2021/06/08 10:17:02;;;;;;;1.72;1.37;;;;;;;29.35;29.77;97733.50;1689481;85;21563;-70
2021/06/08 10:19:29;;;;;;;2.10;1.42;;;;;;;28.42;29.13;97739.45;1688426;84;21054;-63
2021/06/08 10:21:56;;;;;;;1.77;1.22;;;;;;;28.23;29.81;97728.45;1689281;83;21252;-65
2021/06/08 10:24:31;;;;;;;2.17;1.62;;;;;;;28.51;29.26;97727.20;1689215;85;21065;-65
2021/06/08 10:26:58;;;;;;;2.17;1.37;;;;;;;28.21;30.44;97726.55;1688607;84;21002;-65
2021/06/08 10:29:30;;;;;;;1.62;1.50;;;;;;;29.02;29.15;97725.98;1689497;83;21534;-69
2021/06/08 10:31:58;;;;;;;1.82;1.35;;;;;;;29.56;28.23;97724.40;1689546;85;21050;-66
2021/06/08 10:34:28;;;;;;;2.08;1.80;;;;;;;29.77;28.50;97727.01;1689198;85;21054;-68
2021/06/08 10:36:55;;;;;;;2.25;1.75;;;;;;;29.14;27.69;97723.30;1689604;85;21042;-69
2021/06/08 10:39:25;;;;;;;3.00;2.35;;;;;;;28.70;28.27;97718.19;1689328;85;21149;-69
2021/06/08 10:41:52;;;;;;;4.40;3.22;;;;;;;28.80;28.86;97716.05;1689277;84;21046;-69
2021/06/08 10:44:26;;;;;;;3.65;2.62;;;;;;;28.80;29.31;97712.85;1689687;85;21495;-65
2021/06/08 10:46:56;;;;;;;2.20;1.60;;;;;;;29.10;29.39;97716.11;1689550;84;21054;-65
2021/06/08 10:49:39;;;;;;;1.55;1.20;;;;;;;29.49;27.48;97706.48;1689542;85;21030;-69
2021/06/08 10:52:13;;;;;;;2.67;1.60;;;;;;;30.27;27.55;97710.83;1683701;85;21146;-69
2021/06/08 10:54:46;;;;;;;1.87;1.57;;;;;;;30.45;27.61;97712.09;1685195;85;21021;-69
2021/06/08 10:57:16;;;;;;;1.67;1.37;;;;;;;30.25;28.30;97702.25;1676668;85;21050;-69
2021/06/08 10:59:53;;;;;;;1.60;1.35;;;;;;;30.20;28.83;97690.21;1672662;85;21137;-69
2021/06/08 11:02:44;;;;;;;1.40;1.12;;;;;;;30.34;28.35;97698.47;1672557;85;21055;-68
2021/06/08 11:05:14;;;;;;;2.62;1.30;;;;;;;30.26;27.63;97696.36;1672565;86;21011;-66
2021/06/08 11:07:50;;;;;;;1.07;0.98;;;;;;;30.20;28.15;97695.57;1672519;86;21531;-66
2021/06/08 11:10:35;;;;;;;1.52;0.98;;;;;;;30.71;28.50;97695.31;1672583;85;21070;-66
2021/06/08 11:13:17;;;;;;;1.90;1.40;;;;;;;31.31;28.34;97701.59;1672571;86;21059;-69
2021/06/08 11:15:47;;;;;;;1.77;1.37;;;;;;;31.68;28.15;97691.59;1672683;86;20999;-66
2021/06/08 11:18:39;;;;;;;1.90;1.35;;;;;;;32.12;27.74;97687.89;1672654;86;21023;-66
2021/06/08 11:21:12;;;;;;;3.05;1.45;;;;;;;32.54;24.24;97683.83;1672573;86;21086;-66
2021/06/08 11:23:42;;;;;;;2.08;1.22;;;;;;;32.89;22.59;97686.56;1672298;86;21158;-66
2021/06/08 11:26:18;;;;;;;2.08;1.35;;;;;;;33.71;26.13;97684.13;1672366;86;21058;-66
2021/06/08 11:28:52;;;;;;;1.35;1.17;;;;;;;34.01;23.02;97676.78;1669838;86;21055;-66
2021/06/08 11:31:25;;;;;;;2.00;1.27;;;;;;;34.35;22.72;97676.93;1677227;85;21027;-69
2021/06/08 11:34:05;;;;;;;1.35;1.25;;;;;;;34.48;22.94;97674.73;1672609;86;21547;-70
2021/06/08 11:36:34;;;;;;;2.98;1.07;;;;;;;33.93;20.56;97675.36;1672560;85;21090;-70
2021/06/08 11:39:23;;;;;;;1.80;1.60;;;;;;;34.57;21.68;97674.27;1672447;86;21059;-66
2021/06/08 11:42:04;;;;;;;1.55;1.25;;;;;;;34.85;21.00;97670.41;1672674;86;21074;-66
2021/06/08 11:44:32;;;;;;;2.83;1.55;;;;;;;34.81;22.72;97670.77;1672316;86;21023;-66
2021/06/08 11:47:01;;;;;;;2.27;2.00;;;;;;;33.86;21.34;97670.35;1672350;86;21061;-65
2021/06/08 11:49:30;;;;;;;1.72;1.32;;;;;;;34.29;21.10;97673.53;1672175;86;21043;-69
2021/06/08 11:52:13;;;;;;;2.98;1.60;;;;;;;34.81;20.84;97669.97;1677005;85;21116;-64